This is the latest recevied weather packets stored in our database for station/object N8GD. If no packets are shown the sender has not sent any weather packets the latest 10 day(s).
| Time | Temp. | Humidity | Pressure | Rain* | Wind** | Luminosity | Snow |
|---|---|---|---|---|---|---|---|
| 1777601771 | 3.89° C | 87% | 1016.2 hPa | 0 mm | - | - | - |
| 1777600869 | 4.44° C | 87% | 1016 hPa | 0 mm | - | - | - |
| 1777599971 | 4.44° C | 86% | 1015.7 hPa | 0 mm | - | - | - |
| 1777599407 | 5° C | 85% | 1015.6 hPa | 0 mm | - | - | - |
| 1777599069 | 5° C | 85% | 1015.6 hPa | 0 mm | - | - | - |
| 1777598507 | 5° C | 84% | 1015.4 hPa | 0 mm | - | - | - |
| 1777598171 | 5.56° C | 84% | 1015.4 hPa | 0 mm | - | - | - |
| 1777597271 | 6.11° C | 82% | 1015.3 hPa | 0 mm | - | - | - |
| 1777596706 | 6.11° C | 80% | 1015.2 hPa | 0 mm | - | - | - |
| 1777596370 | 6.67° C | 80% | 1015.2 hPa | 0 mm | - | - | - |
| 1777595471 | 7.22° C | 78% | 1015.1 hPa | 0 mm | - | - | - |
| 1777594911 | 7.78° C | 77% | 1015.1 hPa | 0 mm | - | - | - |
| 1777594570 | 8.33° C | 77% | 1015.1 hPa | 0 mm | - | - | - |
| 1777593671 | 8.89° C | 74% | 1015.1 hPa | 0 mm | - | - | - |
| 1777593105 | 9.44° C | 72% | 1015 hPa | 0 mm | - | - | - |
| 1777592770 | 9.44° C | 71% | 1015 hPa | 0 mm | - | - | - |
| 1777591871 | 10° C | 69% | 1014.9 hPa | 0 mm | - | - | - |
| 1777590970 | 10.56° C | 66% | 1014.9 hPa | 0 mm | - | - | - |
| 1777590070 | 10.56° C | 66% | 1014.8 hPa | 0 mm | - | - | - |
| 1777589170 | 10.56° C | 68% | 1015 hPa | 0 mm | - | - | - |
| 1777588270 | 10.56° C | 70% | 1015 hPa | 0 mm | - | - | - |
| 1777587833 | 10° C | 69% | 1015 hPa | 0 mm | - | - | - |
| 1777586931 | 8.89° C | 73% | 1015 hPa | 0 mm | - | - | - |
| 1777586033 | 8.33° C | 77% | 1015 hPa | 0 mm | - | - | - |
| 1777585131 | 8.33° C | 77% | 1015 hPa | 0 mm | - | - | - |
* Rain latest hour (hover to see other rain measurements)
** Current wind speed in m/s (hover to see current wind gust speed)